sensor_id;sensor_type;location;lat;lon;timestamp;temperature;humidity
19864;DHT22;10094;48.820;9.226;2023-07-08T00:00:25;20.90;99.00
19864;DHT22;10094;48.820;9.226;2023-07-08T00:07:11;20.90;97.40
19864;DHT22;10094;48.820;9.226;2023-07-08T00:13:55;20.90;95.50
19864;DHT22;10094;48.820;9.226;2023-07-08T00:20:46;20.60;99.90
19864;DHT22;10094;48.820;9.226;2023-07-08T00:27:29;20.50;99.90
19864;DHT22;10094;48.820;9.226;2023-07-08T00:34:12;20.40;99.90
19864;DHT22;10094;48.820;9.226;2023-07-08T00:47:44;20.30;99.40
19864;DHT22;10094;48.820;9.226;2023-07-08T00:54:27;20.20;99.90
19864;DHT22;10094;48.820;9.226;2023-07-08T01:01:11;20.10;99.90
19864;DHT22;10094;48.820;9.226;2023-07-08T01:07:56;19.80;99.90
19864;DHT22;10094;48.820;9.226;2023-07-08T01:14:41;19.60;99.90
19864;DHT22;10094;48.820;9.226;2023-07-08T01:28:16;19.50;99.90
19864;DHT22;10094;48.820;9.226;2023-07-08T01:35:00;19.30;99.90
19864;DHT22;10094;48.820;9.226;2023-07-08T01:41:44;19.50;99.90
19864;DHT22;10094;48.820;9.226;2023-07-08T01:48:30;19.00;99.90
19864;DHT22;10094;48.820;9.226;2023-07-08T01:55:19;19.10;99.90
19864;DHT22;10094;48.820;9.226;2023-07-08T02:02:02;19.10;99.90
19864;DHT22;10094;48.820;9.226;2023-07-08T02:08:45;18.80;99.90
19864;DHT22;10094;48.820;9.226;2023-07-08T02:15:27;18.80;99.90
19864;DHT22;10094;48.820;9.226;2023-07-08T02:22:10;18.60;99.90
19864;DHT22;10094;48.820;9.226;2023-07-08T02:28:52;18.70;99.90
19864;DHT22;10094;48.820;9.226;2023-07-08T02:35:35;18.80;99.90
19864;DHT22;10094;48.820;9.226;2023-07-08T02:42:18;18.70;99.90
19864;DHT22;10094;48.820;9.226;2023-07-08T02:49:00;18.30;99.90
19864;DHT22;10094;48.820;9.226;2023-07-08T02:55:42;18.40;99.90
19864;DHT22;10094;48.820;9.226;2023-07-08T03:02:26;18.60;99.90
19864;DHT22;10094;48.820;9.226;2023-07-08T03:09:09;18.50;99.90
19864;DHT22;10094;48.820;9.226;2023-07-08T03:15:52;18.80;99.90
19864;DHT22;10094;48.820;9.226;2023-07-08T03:22:35;18.90;99.90
19864;DHT22;10094;48.820;9.226;2023-07-08T03:29:18;18.70;99.90
19864;DHT22;10094;48.820;9.226;2023-07-08T03:36:03;18.70;99.90
19864;DHT22;10094;48.820;9.226;2023-07-08T03:42:46;18.70;99.90
19864;DHT22;10094;48.820;9.226;2023-07-08T03:49:28;18.90;99.90
19864;DHT22;10094;48.820;9.226;2023-07-08T03:56:12;18.90;99.90
19864;DHT22;10094;48.820;9.226;2023-07-08T04:02:56;19.10;99.90
19864;DHT22;10094;48.820;9.226;2023-07-08T04:09:38;18.90;99.90
19864;DHT22;10094;48.820;9.226;2023-07-08T04:16:25;18.80;99.90
19864;DHT22;10094;48.820;9.226;2023-07-08T04:23:10;19.20;99.90
19864;DHT22;10094;48.820;9.226;2023-07-08T04:29:53;19.30;99.90
19864;DHT22;10094;48.820;9.226;2023-07-08T04:36:36;19.40;99.90
19864;DHT22;10094;48.820;9.226;2023-07-08T04:43:19;19.60;99.90
19864;DHT22;10094;48.820;9.226;2023-07-08T04:50:02;19.90;99.90
19864;DHT22;10094;48.820;9.226;2023-07-08T04:56:47;20.30;99.90
19864;DHT22;10094;48.820;9.226;2023-07-08T05:03:30;20.80;99.90
19864;DHT22;10094;48.820;9.226;2023-07-08T05:10:12;21.40;99.90
19864;DHT22;10094;48.820;9.226;2023-07-08T05:16:56;22.80;98.00
19864;DHT22;10094;48.820;9.226;2023-07-08T05:23:39;24.80;93.00
19864;DHT22;10094;48.820;9.226;2023-07-08T05:30:21;27.20;89.10
19864;DHT22;10094;48.820;9.226;2023-07-08T05:37:04;29.20;84.70
19864;DHT22;10094;48.820;9.226;2023-07-08T05:43:47;27.80;84.00
19864;DHT22;10094;48.820;9.226;2023-07-08T05:50:29;27.20;84.50
19864;DHT22;10094;48.820;9.226;2023-07-08T05:57:12;26.40;84.20
19864;DHT22;10094;48.820;9.226;2023-07-08T06:03:55;28.10;84.70
19864;DHT22;10094;48.820;9.226;2023-07-08T06:10:44;31.20;76.40
19864;DHT22;10094;48.820;9.226;2023-07-08T06:17:26;33.60;72.20
19864;DHT22;10094;48.820;9.226;2023-07-08T06:24:09;35.00;68.70
19864;DHT22;10094;48.820;9.226;2023-07-08T06:30:51;36.50;64.90
19864;DHT22;10094;48.820;9.226;2023-07-08T06:37:34;38.00;60.90
19864;DHT22;10094;48.820;9.226;2023-07-08T06:44:16;38.70;57.50
19864;DHT22;10094;48.820;9.226;2023-07-08T06:50:59;37.50;55.70
19864;DHT22;10094;48.820;9.226;2023-07-08T06:57:42;37.00;55.60
19864;DHT22;10094;48.820;9.226;2023-07-08T07:04:24;35.80;55.40
19864;DHT22;10094;48.820;9.226;2023-07-08T07:11:06;33.50;57.00
19864;DHT22;10094;48.820;9.226;2023-07-08T07:17:49;31.50;60.10
19864;DHT22;10094;48.820;9.226;2023-07-08T07:24:31;30.90;61.60
19864;DHT22;10094;48.820;9.226;2023-07-08T07:31:14;31.00;62.00
19864;DHT22;10094;48.820;9.226;2023-07-08T07:37:56;30.40;63.40
19864;DHT22;10094;48.820;9.226;2023-07-08T07:44:39;30.30;64.10
19864;DHT22;10094;48.820;9.226;2023-07-08T07:51:24;30.50;64.60
19864;DHT22;10094;48.820;9.226;2023-07-08T07:58:06;30.30;65.40
19864;DHT22;10094;48.820;9.226;2023-07-08T08:04:50;30.80;65.20
19864;DHT22;10094;48.820;9.226;2023-07-08T08:11:33;34.20;63.90
19864;DHT22;10094;48.820;9.226;2023-07-08T08:18:15;37.10;61.60
19864;DHT22;10094;48.820;9.226;2023-07-08T08:24:57;39.30;59.00
19864;DHT22;10094;48.820;9.226;2023-07-08T08:31:40;40.60;56.50
19864;DHT22;10094;48.820;9.226;2023-07-08T08:38:22;41.80;54.30
19864;DHT22;10094;48.820;9.226;2023-07-08T08:45:07;42.90;51.90
19864;DHT22;10094;48.820;9.226;2023-07-08T08:51:51;41.20;48.60
19864;DHT22;10094;48.820;9.226;2023-07-08T08:58:43;41.30;50.50
19864;DHT22;10094;48.820;9.226;2023-07-08T09:05:26;42.60;49.20
19864;DHT22;10094;48.820;9.226;2023-07-08T09:12:17;40.50;48.60
19864;DHT22;10094;48.820;9.226;2023-07-08T09:19:09;38.40;49.70
19864;DHT22;10094;48.820;9.226;2023-07-08T09:26:04;41.00;49.30
19864;DHT22;10094;48.820;9.226;2023-07-08T09:32:49;39.90;49.30
19864;DHT22;10094;48.820;9.226;2023-07-08T09:39:35;41.00;49.20
19864;DHT22;10094;48.820;9.226;2023-07-08T09:46:18;39.20;49.90
19864;DHT22;10094;48.820;9.226;2023-07-08T09:53:02;39.60;48.50
19864;DHT22;10094;48.820;9.226;2023-07-08T09:59:49;41.60;48.10
19864;DHT22;10094;48.820;9.226;2023-07-08T10:06:35;41.50;48.30
19864;DHT22;10094;48.820;9.226;2023-07-08T10:13:41;39.30;48.20
19864;DHT22;10094;48.820;9.226;2023-07-08T10:20:35;38.30;48.60
19864;DHT22;10094;48.820;9.226;2023-07-08T10:34:44;36.20;49.00
19864;DHT22;10094;48.820;9.226;2023-07-08T10:41:40;31.40;56.10
19864;DHT22;10094;48.820;9.226;2023-07-08T10:48:36;31.50;57.20
19864;DHT22;10094;48.820;9.226;2023-07-08T10:55:59;33.30;56.90
19864;DHT22;10094;48.820;9.226;2023-07-08T11:09:59;32.10;57.40
19864;DHT22;10094;48.820;9.226;2023-07-08T11:23:41;31.60;57.80
19864;DHT22;10094;48.820;9.226;2023-07-08T11:30:28;31.10;57.80
19864;DHT22;10094;48.820;9.226;2023-07-08T11:37:13;31.50;58.80
19864;DHT22;10094;48.820;9.226;2023-07-08T11:50:45;31.20;58.90
19864;DHT22;10094;48.820;9.226;2023-07-08T11:57:38;31.00;58.60
19864;DHT22;10094;48.820;9.226;2023-07-08T12:11:11;31.30;58.40
19864;DHT22;10094;48.820;9.226;2023-07-08T12:24:52;31.60;58.60
19864;DHT22;10094;48.820;9.226;2023-07-08T12:31:42;31.40;58.60
19864;DHT22;10094;48.820;9.226;2023-07-08T12:38:35;31.50;59.10
19864;DHT22;10094;48.820;9.226;2023-07-08T12:45:21;31.70;58.30
19864;DHT22;10094;48.820;9.226;2023-07-08T12:52:04;31.90;57.30
19864;DHT22;10094;48.820;9.226;2023-07-08T12:58:53;32.20;57.80
19864;DHT22;10094;48.820;9.226;2023-07-08T13:05:38;32.50;58.00
19864;DHT22;10094;48.820;9.226;2023-07-08T13:12:22;32.60;57.70
19864;DHT22;10094;48.820;9.226;2023-07-08T13:19:10;32.80;57.20
19864;DHT22;10094;48.820;9.226;2023-07-08T13:25:54;32.70;56.80
19864;DHT22;10094;48.820;9.226;2023-07-08T13:32:37;32.40;56.50
19864;DHT22;10094;48.820;9.226;2023-07-08T13:39:27;32.60;57.60
19864;DHT22;10094;48.820;9.226;2023-07-08T13:46:34;32.60;56.00
19864;DHT22;10094;48.820;9.226;2023-07-08T13:53:20;32.80;56.00
19864;DHT22;10094;48.820;9.226;2023-07-08T14:00:04;32.60;55.70
19864;DHT22;10094;48.820;9.226;2023-07-08T14:06:57;32.70;55.50
19864;DHT22;10094;48.820;9.226;2023-07-08T14:13:39;32.80;54.90
19864;DHT22;10094;48.820;9.226;2023-07-08T14:20:23;32.90;54.30
19864;DHT22;10094;48.820;9.226;2023-07-08T14:27:10;32.80;54.00
19864;DHT22;10094;48.820;9.226;2023-07-08T14:34:02;32.80;54.30
19864;DHT22;10094;48.820;9.226;2023-07-08T14:40:45;32.90;55.20
19864;DHT22;10094;48.820;9.226;2023-07-08T14:47:28;32.60;55.60
19864;DHT22;10094;48.820;9.226;2023-07-08T14:54:10;32.80;55.10
19864;DHT22;10094;48.820;9.226;2023-07-08T15:00:58;32.90;55.20
19864;DHT22;10094;48.820;9.226;2023-07-08T15:07:41;33.10;56.00
19864;DHT22;10094;48.820;9.226;2023-07-08T15:14:24;33.10;55.30
19864;DHT22;10094;48.820;9.226;2023-07-08T15:21:17;33.60;55.10
19864;DHT22;10094;48.820;9.226;2023-07-08T15:28:01;33.60;55.00
19864;DHT22;10094;48.820;9.226;2023-07-08T15:34:44;33.70;55.10
19864;DHT22;10094;48.820;9.226;2023-07-08T15:41:27;33.90;54.40
19864;DHT22;10094;48.820;9.226;2023-07-08T15:48:17;33.90;54.40
19864;DHT22;10094;48.820;9.226;2023-07-08T15:54:59;33.70;54.90
19864;DHT22;10094;48.820;9.226;2023-07-08T16:01:42;33.10;55.50
19864;DHT22;10094;48.820;9.226;2023-07-08T16:08:27;33.20;54.80
19864;DHT22;10094;48.820;9.226;2023-07-08T16:15:27;33.60;54.60
19864;DHT22;10094;48.820;9.226;2023-07-08T16:22:11;33.50;55.20
19864;DHT22;10094;48.820;9.226;2023-07-08T16:28:53;33.40;55.90
19864;DHT22;10094;48.820;9.226;2023-07-08T16:35:36;33.30;55.50
19864;DHT22;10094;48.820;9.226;2023-07-08T16:42:18;33.70;55.80
19864;DHT22;10094;48.820;9.226;2023-07-08T16:49:01;34.00;55.10
19864;DHT22;10094;48.820;9.226;2023-07-08T16:55:43;33.60;55.10
19864;DHT22;10094;48.820;9.226;2023-07-08T17:02:26;33.60;55.50
19864;DHT22;10094;48.820;9.226;2023-07-08T17:09:10;33.20;55.60
19864;DHT22;10094;48.820;9.226;2023-07-08T17:15:53;33.20;55.80
19864;DHT22;10094;48.820;9.226;2023-07-08T17:22:35;33.00;56.00
19864;DHT22;10094;48.820;9.226;2023-07-08T17:29:20;32.90;55.90
19864;DHT22;10094;48.820;9.226;2023-07-08T17:36:11;32.80;56.20
19864;DHT22;10094;48.820;9.226;2023-07-08T17:42:55;32.70;56.80
19864;DHT22;10094;48.820;9.226;2023-07-08T17:49:38;32.60;56.90
19864;DHT22;10094;48.820;9.226;2023-07-08T17:56:34;32.50;57.10
19864;DHT22;10094;48.820;9.226;2023-07-08T18:03:17;32.50;57.70
19864;DHT22;10094;48.820;9.226;2023-07-08T18:10:00;32.30;57.50
19864;DHT22;10094;48.820;9.226;2023-07-08T18:16:42;32.10;57.60
19864;DHT22;10094;48.820;9.226;2023-07-08T18:23:29;32.10;58.00
19864;DHT22;10094;48.820;9.226;2023-07-08T18:30:15;32.10;58.20
19864;DHT22;10094;48.820;9.226;2023-07-08T18:36:58;31.80;59.00
19864;DHT22;10094;48.820;9.226;2023-07-08T18:43:42;31.50;58.90
19864;DHT22;10094;48.820;9.226;2023-07-08T18:50:24;31.40;59.40
19864;DHT22;10094;48.820;9.226;2023-07-08T18:57:08;31.30;60.40
19864;DHT22;10094;48.820;9.226;2023-07-08T19:03:51;31.00;60.00
19864;DHT22;10094;48.820;9.226;2023-07-08T19:10:34;30.70;60.70
19864;DHT22;10094;48.820;9.226;2023-07-08T19:17:17;30.40;61.30
19864;DHT22;10094;48.820;9.226;2023-07-08T19:24:00;30.10;62.00
19864;DHT22;10094;48.820;9.226;2023-07-08T19:30:47;29.80;62.10
19864;DHT22;10094;48.820;9.226;2023-07-08T19:37:33;29.50;62.90
19864;DHT22;10094;48.820;9.226;2023-07-08T19:44:22;29.20;63.80
19864;DHT22;10094;48.820;9.226;2023-07-08T19:51:05;28.80;65.30
19864;DHT22;10094;48.820;9.226;2023-07-08T19:57:53;28.40;68.60
19864;DHT22;10094;48.820;9.226;2023-07-08T20:04:38;28.20;68.20
19864;DHT22;10094;48.820;9.226;2023-07-08T20:11:20;28.10;67.60
19864;DHT22;10094;48.820;9.226;2023-07-08T20:18:03;28.10;68.80
19864;DHT22;10094;48.820;9.226;2023-07-08T20:24:45;27.90;69.90
19864;DHT22;10094;48.820;9.226;2023-07-08T20:31:28;27.60;75.20
19864;DHT22;10094;48.820;9.226;2023-07-08T20:38:11;27.30;76.00
19864;DHT22;10094;48.820;9.226;2023-07-08T20:44:54;27.10;77.70
19864;DHT22;10094;48.820;9.226;2023-07-08T20:51:37;26.90;78.00
19864;DHT22;10094;48.820;9.226;2023-07-08T20:58:24;26.70;80.50
19864;DHT22;10094;48.820;9.226;2023-07-08T21:05:07;26.50;81.70
19864;DHT22;10094;48.820;9.226;2023-07-08T21:11:49;26.50;84.20
19864;DHT22;10094;48.820;9.226;2023-07-08T21:18:33;26.40;85.60
19864;DHT22;10094;48.820;9.226;2023-07-08T21:25:18;26.10;86.30
19864;DHT22;10094;48.820;9.226;2023-07-08T21:32:00;25.50;93.80
19864;DHT22;10094;48.820;9.226;2023-07-08T21:38:43;25.30;94.60
19864;DHT22;10094;48.820;9.226;2023-07-08T21:45:28;25.40;93.80
19864;DHT22;10094;48.820;9.226;2023-07-08T21:52:11;25.50;93.00
19864;DHT22;10094;48.820;9.226;2023-07-08T21:58:57;25.50;92.60
19864;DHT22;10094;48.820;9.226;2023-07-08T22:05:40;25.20;97.50
19864;DHT22;10094;48.820;9.226;2023-07-08T22:12:23;25.00;99.20
19864;DHT22;10094;48.820;9.226;2023-07-08T22:19:06;24.90;99.60
19864;DHT22;10094;48.820;9.226;2023-07-08T22:25:49;24.90;99.50
19864;DHT22;10094;48.820;9.226;2023-07-08T22:32:31;24.50;99.90
19864;DHT22;10094;48.820;9.226;2023-07-08T22:39:14;24.20;99.90
19864;DHT22;10094;48.820;9.226;2023-07-08T22:45:57;24.10;99.90
19864;DHT22;10094;48.820;9.226;2023-07-08T22:52:41;24.20;99.90
19864;DHT22;10094;48.820;9.226;2023-07-08T22:59:24;23.90;99.90
19864;DHT22;10094;48.820;9.226;2023-07-08T23:06:09;23.70;99.90
19864;DHT22;10094;48.820;9.226;2023-07-08T23:12:52;23.60;99.90
19864;DHT22;10094;48.820;9.226;2023-07-08T23:19:34;23.60;99.90
19864;DHT22;10094;48.820;9.226;2023-07-08T23:26:23;23.30;99.90
19864;DHT22;10094;48.820;9.226;2023-07-08T23:33:17;23.10;99.90
19864;DHT22;10094;48.820;9.226;2023-07-08T23:39:59;23.10;99.90
19864;DHT22;10094;48.820;9.226;2023-07-08T23:46:44;23.10;99.90
19864;DHT22;10094;48.820;9.226;2023-07-08T23:53:27;23.30;99.90
